createdAt,value
2023-02-27T00:00:00.620Z,0.4
2023-02-27T00:01:00.878Z,0.4
2023-02-27T00:02:00.589Z,0.4
2023-02-27T00:03:00.645Z,0.4
2023-02-27T00:04:00.625Z,0.4
2023-02-27T00:05:00.628Z,0.4
2023-02-27T00:06:00.542Z,0.4
2023-02-27T00:07:00.579Z,0.4
2023-02-27T00:08:00.563Z,0.3
2023-02-27T00:09:00.906Z,0.3
2023-02-27T00:10:00.604Z,0.3
2023-02-27T00:11:00.526Z,0.3
2023-02-27T00:12:00.538Z,0.1
2023-02-27T00:13:00.557Z,0.1
2023-02-27T00:14:00.547Z,0.1
2023-02-27T00:15:00.555Z,0.1
2023-02-27T00:16:00.690Z,0.1
2023-02-27T00:17:00.535Z,0.1
2023-02-27T00:18:00.562Z,0.1
2023-02-27T00:19:00.580Z,0.1
2023-02-27T00:20:00.976Z,-0.0
2023-02-27T00:21:00.609Z,-0.0
2023-02-27T00:22:00.586Z,0.1
2023-02-27T00:23:00.533Z,0.1
2023-02-27T00:24:00.560Z,0.1
2023-02-27T00:25:00.620Z,0.1
2023-02-27T00:26:00.565Z,0.1
2023-02-27T00:27:00.538Z,0.1
2023-02-27T00:28:00.564Z,0.2
2023-02-27T00:29:00.560Z,0.2
2023-02-27T00:30:00.620Z,0.1
2023-02-27T00:31:00.742Z,0.1
2023-02-27T00:32:00.651Z,0.1
2023-02-27T00:33:00.702Z,0.1
2023-02-27T00:34:00.792Z,0.1
2023-02-27T00:35:00.569Z,0.1
2023-02-27T00:36:01.151Z,0.1
2023-02-27T00:37:00.545Z,0.1
2023-02-27T00:38:01.008Z,0.2
2023-02-27T00:39:00.545Z,0.2
2023-02-27T00:40:00.915Z,0.1
2023-02-27T00:41:00.704Z,0.1
2023-02-27T00:42:00.544Z,0.1
2023-02-27T00:43:01.976Z,0.1
2023-02-27T00:44:00.525Z,0.1
2023-02-27T00:45:00.762Z,0.1
2023-02-27T00:46:00.555Z,0.1
2023-02-27T00:47:00.577Z,0.1
2023-02-27T00:48:00.528Z,0.0
2023-02-27T00:49:00.544Z,0.0
2023-02-27T00:50:00.850Z,-0.0
2023-02-27T00:51:00.719Z,-0.0
2023-02-27T00:52:00.573Z,-0.0
2023-02-27T00:53:00.540Z,-0.0
2023-02-27T00:54:00.559Z,0.0
2023-02-27T00:55:00.525Z,0.0
2023-02-27T00:56:00.537Z,-0.0
2023-02-27T00:57:00.654Z,-0.0
2023-02-27T00:58:00.525Z,0.0
2023-02-27T00:59:00.524Z,0.0
2023-02-27T01:00:00.570Z,-0.0
2023-02-27T01:01:00.651Z,-0.0
2023-02-27T01:02:00.560Z,-0.1
2023-02-27T01:03:00.559Z,-0.1
2023-02-27T01:04:00.612Z,-0.0
2023-02-27T01:05:00.579Z,-0.0
2023-02-27T01:06:00.539Z,-0.1
2023-02-27T01:07:00.620Z,-0.1
2023-02-27T01:08:00.556Z,-0.1
2023-02-27T01:09:00.781Z,-0.1
2023-02-27T01:10:00.553Z,-0.1
2023-02-27T01:11:00.656Z,-0.1
2023-02-27T01:12:00.576Z,-0.1
2023-02-27T01:13:00.564Z,-0.1
2023-02-27T01:14:00.965Z,-0.1
2023-02-27T01:15:00.559Z,-0.1
2023-02-27T01:16:00.664Z,-0.2
2023-02-27T01:17:00.630Z,-0.2
2023-02-27T01:18:00.547Z,-0.2
2023-02-27T01:19:00.536Z,-0.2
2023-02-27T01:20:00.815Z,-0.2
2023-02-27T01:21:00.586Z,-0.2
2023-02-27T01:22:00.576Z,-0.2
2023-02-27T01:23:00.576Z,-0.2
2023-02-27T01:24:00.597Z,-0.3
2023-02-27T01:25:00.800Z,-0.3
2023-02-27T01:26:01.077Z,-0.3
2023-02-27T01:27:00.560Z,-0.3
2023-02-27T01:28:00.573Z,-0.3
2023-02-27T01:29:00.570Z,-0.3
2023-02-27T01:30:00.784Z,-0.3
2023-02-27T01:31:00.742Z,-0.3
2023-02-27T01:32:00.831Z,-0.2
2023-02-27T01:33:00.542Z,-0.2
2023-02-27T01:34:00.546Z,-0.2
2023-02-27T01:35:00.574Z,-0.2
2023-02-27T01:36:00.607Z,-0.3
2023-02-27T01:37:00.575Z,-0.3
2023-02-27T01:38:00.817Z,-0.3
2023-02-27T01:39:00.543Z,-0.3
2023-02-27T01:40:00.869Z,-0.3
2023-02-27T01:41:00.594Z,-0.3
2023-02-27T01:42:00.533Z,-0.3
2023-02-27T01:43:00.542Z,-0.3
2023-02-27T01:44:03.184Z,-0.3
2023-02-27T01:45:01.562Z,-0.3
2023-02-27T01:46:00.642Z,-0.3
2023-02-27T01:47:00.567Z,-0.3
2023-02-27T01:48:03.895Z,-0.4
2023-02-27T01:49:06.120Z,-0.4
2023-02-27T01:50:00.601Z,-0.4
2023-02-27T01:51:02.621Z,-0.4
2023-02-27T01:52:04.016Z,-0.5
2023-02-27T01:53:01.009Z,-0.5
2023-02-27T01:54:01.682Z,-0.5
2023-02-27T01:55:01.449Z,-0.5
2023-02-27T01:56:04.864Z,-0.5
2023-02-27T01:57:00.586Z,-0.5
2023-02-27T01:58:00.602Z,-0.5
2023-02-27T01:59:02.051Z,-0.5
2023-02-27T02:00:00.777Z,-0.5
2023-02-27T02:01:00.681Z,-0.5
2023-02-27T02:02:02.275Z,-0.5
2023-02-27T02:03:10.492Z,-0.5
2023-02-27T02:04:10.487Z,-0.5
2023-02-27T02:05:00.840Z,-0.5
2023-02-27T02:06:01.515Z,-0.5
2023-02-27T02:07:02.173Z,-0.5
2023-02-27T02:08:01.267Z,-0.6
2023-02-27T02:09:01.533Z,-0.6
2023-02-27T02:10:01.207Z,-0.6
2023-02-27T02:11:00.961Z,-0.6
2023-02-27T02:12:00.650Z,-0.5
2023-02-27T02:13:01.113Z,-0.5
2023-02-27T02:14:00.975Z,-0.6
2023-02-27T02:15:00.972Z,-0.6
2023-02-27T02:16:10.467Z,-0.5
2023-02-27T02:17:03.807Z,-0.5
2023-02-27T02:18:10.490Z,-0.6
2023-02-27T02:19:10.538Z,-0.6
2023-02-27T02:20:10.465Z,-0.6
2023-02-27T02:21:10.522Z,-0.6
2023-02-27T02:22:10.488Z,-0.6
2023-02-27T02:23:01.642Z,-0.6
2023-02-27T02:24:07.979Z,-0.7
2023-02-27T02:25:12.456Z,-0.7
2023-02-27T02:26:01.639Z,-0.7
2023-02-27T02:27:10.494Z,-0.7
2023-02-27T02:28:10.495Z,-0.7
2023-02-27T02:29:03.849Z,-0.7
2023-02-27T02:30:10.486Z,-0.7
2023-02-27T02:31:10.615Z,-0.7
2023-02-27T02:32:08.004Z,-0.8
2023-02-27T02:33:01.516Z,-0.8
2023-02-27T02:34:10.499Z,-0.8
2023-02-27T02:35:00.539Z,-0.8
2023-02-27T02:36:10.491Z,-0.8
2023-02-27T02:37:10.480Z,-0.8
2023-02-27T02:38:10.490Z,-0.8
2023-02-27T02:39:06.862Z,-0.8
2023-02-27T02:40:10.499Z,-0.8
2023-02-27T02:41:10.489Z,-0.8
2023-02-27T02:42:03.593Z,-0.8
2023-02-27T02:43:00.525Z,-0.8
2023-02-27T02:44:07.003Z,-0.9
2023-02-27T02:45:10.627Z,-0.9
2023-02-27T02:46:06.871Z,-0.8
2023-02-27T02:47:10.498Z,-0.8
2023-02-27T02:48:00.524Z,-0.9
2023-02-27T02:49:05.476Z,-0.9
2023-02-27T02:50:08.118Z,-0.8
2023-02-27T02:51:09.182Z,-0.8
2023-02-27T02:52:05.424Z,-0.8
2023-02-27T02:53:00.508Z,-0.8
2023-02-27T02:54:05.649Z,-0.9
2023-02-27T02:55:05.355Z,-0.9
2023-02-27T02:56:07.933Z,-0.9
2023-02-27T02:57:00.514Z,-0.9
2023-02-27T02:58:05.778Z,-1.0
2023-02-27T02:59:05.641Z,-1.0
2023-02-27T03:00:10.505Z,-0.9
2023-02-27T03:01:10.515Z,-0.9
2023-02-27T03:02:10.456Z,-0.9
2023-02-27T03:03:10.363Z,-0.9
2023-02-27T03:04:04.936Z,-1.0
2023-02-27T03:05:04.341Z,-1.0
2023-02-27T03:06:05.523Z,-0.9
2023-02-27T03:07:03.981Z,-0.9
2023-02-27T03:08:04.394Z,-0.9
2023-02-27T03:09:06.785Z,-0.9
2023-02-27T03:10:03.962Z,-0.9
2023-02-27T03:11:02.121Z,-0.9
2023-02-27T03:12:03.663Z,-0.9
2023-02-27T03:13:04.145Z,-0.9
2023-02-27T03:14:07.014Z,-0.9
2023-02-27T03:15:05.097Z,-0.9
2023-02-27T03:16:06.670Z,-0.9
2023-02-27T03:17:05.459Z,-0.9
2023-02-27T03:18:05.451Z,-0.9
2023-02-27T03:19:00.511Z,-0.9
2023-02-27T03:20:03.336Z,-0.9
2023-02-27T03:21:03.454Z,-0.9
2023-02-27T03:22:03.484Z,-0.9
2023-02-27T03:23:04.178Z,-0.9
2023-02-27T03:24:03.552Z,-0.8
2023-02-27T03:25:01.790Z,-0.8
2023-02-27T03:26:02.002Z,-0.9
2023-02-27T03:27:01.526Z,-0.9
2023-02-27T03:28:05.561Z,-0.9
2023-02-27T03:29:03.233Z,-0.9
2023-02-27T03:30:10.511Z,-0.9
2023-02-27T03:31:05.389Z,-0.9
2023-02-27T03:32:07.597Z,-1.0
2023-02-27T03:33:07.164Z,-1.0
2023-02-27T03:34:05.941Z,-1.0
2023-02-27T03:35:01.404Z,-1.0
2023-02-27T03:36:07.084Z,-1.0
2023-02-27T03:37:00.501Z,-1.0
2023-02-27T03:38:06.046Z,-1.0
2023-02-27T03:39:08.947Z,-1.0
2023-02-27T03:40:00.524Z,-1.0
2023-02-27T03:41:00.498Z,-1.0
2023-02-27T03:42:07.873Z,-1.0
2023-02-27T03:43:10.451Z,-1.0
2023-02-27T03:44:10.455Z,-1.0
2023-02-27T03:45:03.769Z,-1.0
2023-02-27T03:46:06.645Z,-1.0
2023-02-27T03:47:00.740Z,-1.0
2023-02-27T03:48:01.528Z,-1.0
2023-02-27T03:49:00.805Z,-1.0
2023-02-27T03:50:00.529Z,-1.0
2023-02-27T03:51:00.667Z,-1.0
2023-02-27T03:52:00.575Z,-1.1
2023-02-27T03:53:02.562Z,-1.1
2023-02-27T03:54:03.798Z,-1.1
2023-02-27T03:55:03.924Z,-1.1
2023-02-27T03:56:02.427Z,-1.1
2023-02-27T03:57:03.426Z,-1.1
2023-02-27T03:58:00.715Z,-1.1
2023-02-27T03:59:00.584Z,-1.1
2023-02-27T04:00:00.828Z,-1.1
2023-02-27T04:01:00.586Z,-1.1
2023-02-27T04:02:01.742Z,-1.2
2023-02-27T04:03:01.262Z,-1.2
2023-02-27T04:04:03.781Z,-1.0
2023-02-27T04:05:00.560Z,-1.0
2023-02-27T04:06:00.580Z,-1.1
2023-02-27T04:07:10.451Z,-1.1
2023-02-27T04:08:10.452Z,-1.1
2023-02-27T04:09:05.737Z,-1.1
2023-02-27T04:10:10.489Z,-1.1
2023-02-27T04:11:10.474Z,-1.1
2023-02-27T04:12:09.957Z,-1.1
2023-02-27T04:13:03.791Z,-1.1
2023-02-27T04:14:10.457Z,-1.2
2023-02-27T04:15:00.534Z,-1.2
2023-02-27T04:16:10.508Z,-1.2
2023-02-27T04:17:07.843Z,-1.2
2023-02-27T04:18:09.513Z,-1.2
2023-02-27T04:19:10.479Z,-1.2
2023-02-27T04:20:10.504Z,-1.2
2023-02-27T04:21:03.783Z,-1.2
2023-02-27T04:22:07.297Z,-1.2
2023-02-27T04:23:10.483Z,-1.2
2023-02-27T04:24:10.454Z,-1.2
2023-02-27T04:25:03.774Z,-1.2
2023-02-27T04:26:10.478Z,-1.2
2023-02-27T04:27:01.546Z,-1.2
2023-02-27T04:28:10.491Z,-1.3
2023-02-27T04:29:03.798Z,-1.3
2023-02-27T04:30:01.536Z,-1.2
2023-02-27T04:31:08.519Z,-1.2
2023-02-27T04:32:04.209Z,-1.3
2023-02-27T04:33:10.486Z,-1.3
2023-02-27T04:34:10.040Z,-1.3
2023-02-27T04:35:10.471Z,-1.3
2023-02-27T04:36:05.888Z,-1.3
2023-02-27T04:37:00.510Z,-1.3
2023-02-27T04:38:06.151Z,-1.4
2023-02-27T04:39:05.221Z,-1.4
2023-02-27T04:40:03.546Z,-1.4
2023-02-27T04:41:04.624Z,-1.4
2023-02-27T04:42:02.823Z,-1.4
2023-02-27T04:43:03.203Z,-1.4
2023-02-27T04:44:02.018Z,-1.4
2023-02-27T04:45:03.209Z,-1.4
2023-02-27T04:46:02.267Z,-1.4
2023-02-27T04:47:02.890Z,-1.4
2023-02-27T04:48:04.461Z,-1.4
2023-02-27T04:49:07.622Z,-1.4
2023-02-27T04:50:06.320Z,-1.4
2023-02-27T04:51:06.126Z,-1.4
2023-02-27T04:52:05.823Z,-1.5
2023-02-27T04:53:05.078Z,-1.5
2023-02-27T04:54:05.198Z,-1.5
2023-02-27T04:55:03.989Z,-1.5
2023-02-27T04:56:03.296Z,-1.4
2023-02-27T04:57:03.566Z,-1.4
2023-02-27T04:58:04.320Z,-1.4
2023-02-27T04:59:02.761Z,-1.4
2023-02-27T05:00:02.496Z,-1.5
2023-02-27T05:01:03.080Z,-1.5
2023-02-27T05:02:05.391Z,-1.5
2023-02-27T05:03:05.380Z,-1.5
2023-02-27T05:04:02.056Z,-1.5
2023-02-27T05:05:03.042Z,-1.5
2023-02-27T05:06:01.425Z,-1.6
2023-02-27T05:07:02.563Z,-1.6
2023-02-27T05:08:02.753Z,-1.5
2023-02-27T05:09:03.788Z,-1.5
2023-02-27T05:10:03.013Z,-1.6
2023-02-27T05:11:05.979Z,-1.6
2023-02-27T05:12:02.812Z,-1.5
2023-02-27T05:13:04.276Z,-1.5
2023-02-27T05:14:07.069Z,-1.6
2023-02-27T05:15:04.472Z,-1.6
2023-02-27T05:16:07.861Z,-1.5
2023-02-27T05:17:04.702Z,-1.5
2023-02-27T05:18:02.336Z,-1.5
2023-02-27T05:19:01.507Z,-1.5
2023-02-27T05:20:01.001Z,-1.6
2023-02-27T05:21:07.417Z,-1.6
2023-02-27T05:22:10.465Z,-1.5
2023-02-27T05:23:10.461Z,-1.5
2023-02-27T05:24:00.536Z,-1.6
2023-02-27T05:25:05.086Z,-1.6
2023-02-27T05:26:07.468Z,-1.6
2023-02-27T05:27:09.532Z,-1.6
2023-02-27T05:28:03.850Z,-1.6
2023-02-27T05:29:07.000Z,-1.6
2023-02-27T05:30:03.543Z,-1.6
2023-02-27T05:31:03.833Z,-1.6
2023-02-27T05:32:10.613Z,-1.6
2023-02-27T05:33:10.492Z,-1.6
2023-02-27T05:34:10.461Z,-1.5
2023-02-27T05:35:01.526Z,-1.5
2023-02-27T05:36:10.534Z,-1.6
2023-02-27T05:37:02.349Z,-1.6
2023-02-27T05:38:10.492Z,-1.6
2023-02-27T05:39:03.395Z,-1.6
2023-02-27T05:40:03.165Z,-1.6
2023-02-27T05:41:04.673Z,-1.6
2023-02-27T05:42:03.540Z,-1.6
2023-02-27T05:43:07.957Z,-1.6
2023-02-27T05:44:10.498Z,-1.6
2023-02-27T05:45:10.458Z,-1.6
2023-02-27T05:46:04.483Z,-1.6
2023-02-27T05:47:05.313Z,-1.6
2023-02-27T05:48:04.805Z,-1.6
2023-02-27T05:49:03.719Z,-1.6
2023-02-27T05:50:04.689Z,-1.7
2023-02-27T05:51:01.882Z,-1.7
2023-02-27T05:52:03.506Z,-1.6
2023-02-27T05:53:03.087Z,-1.6
2023-02-27T05:54:05.441Z,-1.6
2023-02-27T05:55:03.520Z,-1.6
2023-02-27T05:56:03.202Z,-1.6
2023-02-27T05:57:01.463Z,-1.6
2023-02-27T05:58:00.530Z,-1.6
2023-02-27T05:59:05.280Z,-1.6
2023-02-27T06:00:01.508Z,-1.6
2023-02-27T06:01:03.193Z,-1.6
2023-02-27T06:02:00.687Z,-1.7
2023-02-27T06:03:00.657Z,-1.7
2023-02-27T06:04:01.623Z,-1.6
2023-02-27T06:05:00.528Z,-1.6
2023-02-27T06:06:02.595Z,-1.6
2023-02-27T06:07:00.874Z,-1.6
2023-02-27T06:08:00.540Z,-1.6
2023-02-27T06:09:00.538Z,-1.6
2023-02-27T06:10:00.713Z,-1.5
2023-02-27T06:11:00.533Z,-1.5
2023-02-27T06:12:00.579Z,-1.7
2023-02-27T06:13:00.534Z,-1.7
2023-02-27T06:14:00.608Z,-1.7
2023-02-27T06:15:00.580Z,-1.7
2023-02-27T06:16:00.580Z,-1.8
2023-02-27T06:17:00.604Z,-1.8
2023-02-27T06:18:00.569Z,-1.8
2023-02-27T06:19:00.550Z,-1.8
2023-02-27T06:20:00.686Z,-1.8
2023-02-27T06:21:00.559Z,-1.8
2023-02-27T06:22:00.536Z,-1.7
2023-02-27T06:23:00.625Z,-1.7
2023-02-27T06:24:00.550Z,-1.8
2023-02-27T06:25:00.692Z,-1.8
2023-02-27T06:26:00.576Z,-1.8
2023-02-27T06:27:00.579Z,-1.8
2023-02-27T06:28:00.576Z,-1.8
2023-02-27T06:29:00.563Z,-1.8
2023-02-27T06:30:00.528Z,-1.7
2023-02-27T06:31:00.592Z,-1.7
2023-02-27T06:32:00.576Z,-1.7
2023-02-27T06:33:00.712Z,-1.7
2023-02-27T06:34:00.525Z,-1.7
2023-02-27T06:35:00.564Z,-1.7
2023-02-27T06:36:00.596Z,-1.7
2023-02-27T06:37:04.084Z,-1.7
2023-02-27T06:38:00.519Z,-1.7
2023-02-27T06:39:00.616Z,-1.7
2023-02-27T06:40:00.576Z,-1.7
2023-02-27T06:41:00.528Z,-1.7
2023-02-27T06:42:00.570Z,-1.7
2023-02-27T06:43:00.522Z,-1.7
2023-02-27T06:44:00.549Z,-1.7
2023-02-27T06:45:00.575Z,-1.7
2023-02-27T06:46:00.626Z,-1.7
2023-02-27T06:47:00.547Z,-1.7
2023-02-27T06:48:00.540Z,-1.8
2023-02-27T06:49:00.548Z,-1.8
2023-02-27T06:50:00.581Z,-1.8
2023-02-27T06:51:00.551Z,-1.8
2023-02-27T06:52:00.562Z,-1.8
2023-02-27T06:53:00.566Z,-1.8
2023-02-27T06:54:00.575Z,-1.7
2023-02-27T06:55:00.552Z,-1.7
2023-02-27T06:56:00.573Z,-1.8
2023-02-27T06:57:00.527Z,-1.8
2023-02-27T06:58:00.554Z,-1.8
2023-02-27T06:59:00.670Z,-1.8
2023-02-27T07:00:00.620Z,-1.8
2023-02-27T07:01:00.535Z,-1.8
2023-02-27T07:02:00.594Z,-1.8
2023-02-27T07:03:00.574Z,-1.8
2023-02-27T07:04:00.553Z,-1.8
2023-02-27T07:05:00.610Z,-1.8
2023-02-27T07:06:00.819Z,-1.7
2023-02-27T07:07:32.433Z,-1.7
2023-02-27T07:08:00.942Z,-1.8
2023-02-27T07:09:02.433Z,-1.8
2023-02-27T07:10:00.528Z,-1.7
2023-02-27T07:11:00.592Z,-1.7
2023-02-27T07:12:00.953Z,-1.7
2023-02-27T07:13:00.524Z,-1.7
2023-02-27T07:14:00.641Z,-1.7
2023-02-27T07:15:00.570Z,-1.7
2023-02-27T07:16:00.599Z,-1.6
2023-02-27T07:17:00.596Z,-1.6
2023-02-27T07:18:00.529Z,-1.6
2023-02-27T07:19:00.528Z,-1.6
2023-02-27T07:20:00.549Z,-1.6
2023-02-27T07:21:00.635Z,-1.6
2023-02-27T07:22:00.540Z,-1.6
2023-02-27T07:23:00.718Z,-1.6
2023-02-27T07:24:00.537Z,-1.5
2023-02-27T07:25:00.609Z,-1.5
2023-02-27T07:26:00.567Z,-1.5
2023-02-27T07:27:00.599Z,-1.5
2023-02-27T07:28:00.524Z,-1.5
2023-02-27T07:29:00.604Z,-1.5
2023-02-27T07:30:00.584Z,-1.4
2023-02-27T07:31:00.765Z,-1.4
2023-02-27T07:32:00.833Z,-1.4
2023-02-27T07:33:00.517Z,-1.4
2023-02-27T07:34:00.593Z,-1.3
2023-02-27T07:35:00.527Z,-1.3
2023-02-27T07:36:00.641Z,-1.3
2023-02-27T07:37:00.520Z,-1.3
2023-02-27T07:38:00.521Z,-1.3
2023-02-27T07:39:00.536Z,-1.3
2023-02-27T07:40:00.641Z,-1.2
2023-02-27T07:41:00.537Z,-1.2
2023-02-27T07:42:00.562Z,-1.2
2023-02-27T07:43:00.548Z,-1.2
2023-02-27T07:44:00.790Z,-1.2
2023-02-27T07:47:00.531Z,-1.2
2023-02-27T07:48:00.765Z,-1.1
2023-02-27T07:49:00.581Z,-1.1
2023-02-27T07:50:00.609Z,-1.0
2023-02-27T07:51:00.629Z,-1.0
2023-02-27T07:52:00.592Z,-1.0
2023-02-27T07:53:00.618Z,-1.0
2023-02-27T07:54:00.573Z,-0.9
2023-02-27T07:55:00.624Z,-0.9
2023-02-27T07:56:00.613Z,-0.9
2023-02-27T07:57:00.578Z,-0.9
2023-02-27T07:58:00.568Z,-0.7
2023-02-27T07:59:00.577Z,-0.7
2023-02-27T08:00:00.759Z,-0.8
2023-02-27T08:01:00.564Z,-0.8
2023-02-27T08:02:00.628Z,-0.7
2023-02-27T08:03:00.654Z,-0.7
2023-02-27T08:04:00.731Z,-0.7
2023-02-27T08:05:00.730Z,-0.7
2023-02-27T08:06:02.332Z,-0.5
2023-02-27T08:07:00.999Z,-0.5
2023-02-27T08:08:01.069Z,-0.5
2023-02-27T08:09:05.353Z,-0.5
2023-02-27T08:10:00.766Z,-0.5
2023-02-27T08:11:01.352Z,-0.5
2023-02-27T08:12:00.726Z,-0.4
2023-02-27T08:13:02.808Z,-0.4
2023-02-27T08:14:02.100Z,-0.3
2023-02-27T08:15:10.649Z,-0.3
2023-02-27T08:16:00.641Z,-0.3
2023-02-27T08:17:00.715Z,-0.3
2023-02-27T08:18:00.599Z,-0.2
2023-02-27T08:19:00.688Z,-0.2
2023-02-27T08:20:00.696Z,-0.3
2023-02-27T08:21:00.634Z,-0.3
2023-02-27T08:22:00.611Z,-0.2
2023-02-27T08:23:00.621Z,-0.2
2023-02-27T08:24:00.598Z,-0.1
2023-02-27T08:25:00.573Z,-0.1
2023-02-27T08:26:01.291Z,-0.0
2023-02-27T08:27:00.592Z,-0.0
2023-02-27T08:28:00.581Z,0.1
2023-02-27T08:29:00.596Z,0.1
2023-02-27T08:30:00.584Z,0.1
2023-02-27T08:31:00.601Z,0.1
2023-02-27T08:32:00.782Z,0.1
2023-02-27T08:33:00.585Z,0.1
2023-02-27T08:34:09.820Z,0.2
2023-02-27T08:35:00.775Z,0.2
2023-02-27T08:36:00.630Z,0.3
2023-02-27T08:37:00.573Z,0.3
2023-02-27T08:38:00.578Z,0.3
2023-02-27T08:39:00.589Z,0.3
2023-02-27T08:40:00.707Z,0.4
2023-02-27T08:41:00.593Z,0.4
2023-02-27T08:42:00.573Z,0.4
2023-02-27T08:43:00.558Z,0.4
2023-02-27T08:44:00.682Z,0.4
2023-02-27T08:45:00.572Z,0.4
2023-02-27T08:46:00.618Z,0.5
2023-02-27T08:47:00.603Z,0.5
2023-02-27T08:48:00.559Z,0.6
2023-02-27T08:49:00.582Z,0.6
2023-02-27T08:50:00.575Z,0.7
2023-02-27T08:51:00.588Z,0.7
2023-02-27T08:52:00.590Z,0.8
2023-02-27T08:53:00.557Z,0.8
2023-02-27T08:54:00.606Z,0.8
2023-02-27T08:56:00.636Z,1.0
2023-02-27T08:57:00.660Z,1.0
2023-02-27T08:58:00.657Z,1.1
2023-02-27T08:59:00.665Z,1.1
2023-02-27T09:00:00.846Z,1.2
2023-02-27T09:01:01.048Z,1.2
2023-02-27T09:02:00.691Z,1.3
2023-02-27T09:03:00.693Z,1.3
2023-02-27T09:04:02.739Z,1.5
2023-02-27T09:05:00.642Z,1.5
2023-02-27T09:06:00.649Z,1.6
2023-02-27T09:07:00.923Z,1.6
2023-02-27T09:08:01.034Z,1.8
2023-02-27T09:09:01.208Z,1.8
2023-02-27T09:10:00.628Z,2.0
2023-02-27T09:11:00.646Z,2.0
2023-02-27T09:12:00.629Z,2.1
2023-02-27T09:13:00.766Z,2.1
2023-02-27T09:14:00.643Z,2.4
2023-02-27T09:15:00.684Z,2.4
2023-02-27T09:16:00.665Z,2.6
2023-02-27T09:17:00.760Z,2.6
2023-02-27T09:18:00.683Z,2.6
2023-02-27T09:19:00.649Z,2.6
2023-02-27T09:20:00.663Z,2.6
2023-02-27T09:21:00.681Z,2.6
2023-02-27T09:22:00.749Z,2.8
2023-02-27T09:23:01.293Z,2.8
2023-02-27T09:24:07.360Z,2.9
2023-02-27T09:25:00.669Z,2.9
2023-02-27T09:26:00.630Z,3.0
2023-02-27T09:27:00.734Z,3.0
2023-02-27T09:28:00.631Z,3.1
2023-02-27T09:29:00.668Z,3.1
2023-02-27T09:30:00.671Z,3.1
2023-02-27T09:31:01.037Z,3.1
2023-02-27T09:32:00.899Z,3.1
2023-02-27T09:33:00.679Z,3.1
2023-02-27T09:34:00.660Z,3.1
2023-02-27T09:35:00.658Z,3.1
2023-02-27T09:36:00.679Z,3.1
2023-02-27T09:37:00.848Z,3.1
2023-02-27T09:38:00.670Z,3.0
2023-02-27T09:39:00.683Z,3.0
2023-02-27T09:40:00.873Z,2.9
2023-02-27T09:41:00.760Z,2.9
2023-02-27T09:42:03.822Z,2.6
2023-02-27T09:43:07.037Z,2.6
2023-02-27T09:44:00.680Z,2.6
2023-02-27T09:45:04.758Z,2.6
2023-02-27T09:46:01.353Z,2.6
2023-02-27T09:47:02.128Z,2.6
2023-02-27T09:48:10.567Z,2.7
2023-02-27T09:49:00.939Z,2.7
2023-02-27T09:50:02.737Z,2.9
2023-02-27T09:51:01.191Z,2.9
2023-02-27T09:52:01.138Z,3.0
2023-02-27T09:53:00.673Z,3.0
2023-02-27T09:54:01.099Z,2.9
2023-02-27T09:55:01.399Z,2.9
2023-02-27T09:56:10.595Z,2.8
2023-02-27T09:57:02.676Z,2.8
2023-02-27T09:58:05.950Z,3.0
2023-02-27T09:59:00.643Z,3.0
2023-02-27T10:00:03.659Z,3.0
2023-02-27T10:01:07.347Z,3.0
2023-02-27T10:02:10.644Z,3.2
2023-02-27T10:03:08.209Z,3.2
2023-02-27T10:04:11.242Z,3.3
2023-02-27T10:05:10.568Z,3.3
2023-02-27T10:06:10.579Z,3.4
2023-02-27T10:07:01.649Z,3.4
2023-02-27T10:08:06.815Z,3.3
2023-02-27T10:09:01.649Z,3.3
2023-02-27T10:10:08.594Z,3.4
2023-02-27T10:11:03.860Z,3.4
2023-02-27T10:12:08.787Z,3.4
2023-02-27T10:13:10.489Z,3.4
2023-02-27T10:14:00.653Z,3.4
2023-02-27T10:15:00.650Z,3.4
2023-02-27T10:16:01.579Z,3.4
2023-02-27T10:17:02.668Z,3.4
2023-02-27T10:18:13.584Z,3.4
2023-02-27T10:19:01.996Z,3.4
2023-02-27T10:20:02.024Z,3.5
2023-02-27T10:21:04.758Z,3.5
2023-02-27T10:22:03.893Z,3.6
2023-02-27T10:23:03.958Z,3.6
2023-02-27T10:24:07.624Z,3.8
2023-02-27T10:25:04.119Z,3.8
2023-02-27T10:26:01.998Z,3.7
2023-02-27T10:27:02.236Z,3.7
2023-02-27T10:28:10.312Z,3.7
2023-02-27T10:29:08.616Z,3.7
2023-02-27T10:30:12.912Z,3.8
2023-02-27T10:31:01.023Z,3.8
2023-02-27T10:32:05.082Z,3.8
2023-02-27T10:33:06.999Z,3.8
2023-02-27T10:34:01.875Z,3.7
2023-02-27T10:35:10.570Z,3.7
2023-02-27T10:36:03.130Z,3.7
2023-02-27T10:37:02.562Z,3.7
2023-02-27T10:38:04.431Z,3.9
2023-02-27T10:39:03.908Z,3.9
2023-02-27T10:40:01.503Z,4.0
2023-02-27T10:41:01.126Z,4.0
2023-02-27T10:42:04.397Z,3.9
2023-02-27T10:43:01.167Z,3.9
2023-02-27T10:44:00.700Z,4.0
2023-02-27T10:45:01.540Z,4.0
2023-02-27T10:46:01.956Z,4.1
2023-02-27T10:47:00.654Z,4.1
2023-02-27T10:48:01.165Z,4.2
2023-02-27T10:49:01.126Z,4.2
2023-02-27T10:50:00.675Z,4.1
2023-02-27T10:51:10.599Z,4.1
2023-02-27T10:52:05.949Z,4.1
2023-02-27T10:53:02.358Z,4.1
2023-02-27T10:54:10.591Z,4.1
2023-02-27T10:55:10.573Z,4.1
2023-02-27T10:56:03.099Z,4.1
2023-02-27T10:57:02.042Z,4.1
2023-02-27T10:58:01.945Z,4.1
2023-02-27T10:59:03.150Z,4.1
2023-02-27T11:00:02.222Z,4.0
2023-02-27T11:01:03.643Z,4.0
2023-02-27T11:02:03.340Z,4.1
2023-02-27T11:03:00.864Z,4.1
2023-02-27T11:04:00.672Z,4.1
2023-02-27T11:05:01.470Z,4.1
2023-02-27T11:06:04.081Z,4.2
2023-02-27T11:07:02.839Z,4.2
2023-02-27T11:08:10.592Z,4.2
2023-02-27T11:09:10.589Z,4.2
2023-02-27T11:10:03.614Z,4.3
2023-02-27T11:11:02.338Z,4.3
2023-02-27T11:12:10.590Z,4.3
2023-02-27T11:13:02.510Z,4.3
2023-02-27T11:14:10.596Z,4.5
2023-02-27T11:15:10.561Z,4.5
2023-02-27T11:16:04.813Z,4.7
2023-02-27T11:17:01.281Z,4.7
2023-02-27T11:18:10.566Z,4.8
2023-02-27T11:19:08.761Z,4.8
2023-02-27T11:20:01.815Z,4.8
2023-02-27T11:21:10.575Z,4.8
2023-02-27T11:22:01.650Z,5.0
2023-02-27T11:23:02.144Z,5.0
2023-02-27T11:24:02.374Z,4.9
2023-02-27T11:25:10.614Z,4.9
2023-02-27T11:26:08.669Z,4.8
2023-02-27T11:27:03.020Z,4.8
2023-02-27T11:28:10.604Z,4.8
2023-02-27T11:29:10.567Z,4.8
2023-02-27T11:30:02.304Z,4.6
2023-02-27T11:31:03.832Z,4.6
2023-02-27T11:32:01.728Z,4.7
2023-02-27T11:33:00.754Z,4.7
2023-02-27T11:34:01.031Z,4.8
2023-02-27T11:35:00.752Z,4.8
2023-02-27T11:36:01.304Z,5.0
2023-02-27T11:37:03.358Z,5.0
2023-02-27T11:38:06.063Z,4.9
2023-02-27T11:39:00.692Z,4.9
2023-02-27T11:40:00.643Z,5.0
2023-02-27T11:41:02.249Z,5.0
2023-02-27T11:42:10.576Z,5.0
2023-02-27T11:43:02.627Z,5.0
2023-02-27T11:44:02.002Z,5.1
2023-02-27T11:45:03.739Z,5.1
2023-02-27T11:46:04.154Z,5.0
2023-02-27T11:47:10.639Z,5.0
2023-02-27T11:48:08.544Z,5.1
2023-02-27T11:49:06.348Z,5.1
2023-02-27T11:50:03.927Z,5.3
2023-02-27T11:51:10.621Z,5.3
2023-02-27T11:52:07.959Z,5.4
2023-02-27T11:53:00.645Z,5.4
2023-02-27T11:54:00.661Z,5.3
2023-02-27T11:55:02.474Z,5.3
2023-02-27T11:56:02.857Z,5.1
2023-02-27T11:57:02.960Z,5.1
2023-02-27T11:58:04.694Z,4.8
2023-02-27T11:59:04.983Z,4.8
2023-02-27T12:00:04.693Z,4.8
2023-02-27T12:01:04.396Z,4.8
2023-02-27T12:02:04.298Z,5.0
2023-02-27T12:03:00.775Z,5.0
2023-02-27T12:04:05.960Z,5.2
2023-02-27T12:05:00.649Z,5.2
2023-02-27T12:06:04.617Z,5.2
2023-02-27T12:07:04.986Z,5.2
2023-02-27T12:08:04.611Z,5.3
2023-02-27T12:09:04.385Z,5.3
2023-02-27T12:10:04.625Z,5.2
2023-02-27T12:11:13.894Z,5.2
2023-02-27T12:12:04.348Z,5.2
2023-02-27T12:13:10.573Z,5.2
2023-02-27T12:14:02.478Z,5.5
2023-02-27T12:15:09.365Z,5.5
2023-02-27T12:16:01.753Z,5.7
2023-02-27T12:17:05.772Z,5.7
2023-02-27T12:18:03.928Z,5.9
2023-02-27T12:19:00.638Z,5.9
2023-02-27T12:20:10.570Z,6.1
2023-02-27T12:21:00.617Z,6.1
2023-02-27T12:22:04.732Z,6.2
2023-02-27T12:23:03.052Z,6.2
2023-02-27T12:24:08.130Z,6.2
2023-02-27T12:25:04.852Z,6.2
2023-02-27T12:26:04.097Z,6.3
2023-02-27T12:27:10.575Z,6.3
2023-02-27T12:28:00.630Z,6.6
2023-02-27T12:29:10.600Z,6.6
2023-02-27T12:30:06.336Z,6.4
2023-02-27T12:31:10.621Z,6.4
2023-02-27T12:32:06.527Z,6.7
2023-02-27T12:33:10.598Z,6.7
2023-02-27T12:34:10.570Z,6.4
2023-02-27T12:35:05.419Z,6.4
2023-02-27T12:36:02.345Z,6.6
2023-02-27T12:37:03.388Z,6.6
2023-02-27T12:38:01.415Z,6.5
2023-02-27T12:39:00.699Z,6.5
2023-02-27T12:40:01.971Z,6.6
2023-02-27T12:41:10.602Z,6.6
2023-02-27T12:42:10.591Z,6.6
2023-02-27T12:43:01.665Z,6.6
2023-02-27T12:44:00.619Z,6.7
2023-02-27T12:45:10.575Z,6.7
2023-02-27T12:46:10.626Z,6.6
2023-02-27T12:47:10.564Z,6.6
2023-02-27T12:48:00.623Z,6.6
2023-02-27T12:49:00.609Z,6.6
2023-02-27T12:50:04.774Z,5.7
2023-02-27T12:51:10.587Z,5.7
2023-02-27T12:52:08.585Z,5.5
2023-02-27T12:53:07.869Z,5.5
2023-02-27T12:54:10.577Z,5.6
2023-02-27T12:55:06.433Z,5.6
2023-02-27T12:56:04.788Z,5.7
2023-02-27T12:57:05.202Z,5.7
2023-02-27T12:58:00.647Z,5.6
2023-02-27T12:59:01.643Z,5.6
2023-02-27T13:00:01.669Z,5.5
2023-02-27T13:01:04.873Z,5.5
2023-02-27T13:02:10.566Z,5.6
2023-02-27T13:03:08.795Z,5.6
2023-02-27T13:04:10.669Z,5.4
2023-02-27T13:05:10.609Z,5.4
2023-02-27T13:06:07.396Z,5.3
2023-02-27T13:07:03.751Z,5.3
2023-02-27T13:08:10.602Z,5.3
2023-02-27T13:09:01.679Z,5.3
2023-02-27T13:10:07.711Z,5.4
2023-02-27T13:11:05.554Z,5.4
2023-02-27T13:12:10.568Z,5.4
2023-02-27T13:13:05.590Z,5.4
2023-02-27T13:14:04.655Z,5.5
2023-02-27T13:15:00.629Z,5.5
2023-02-27T13:16:06.041Z,5.6
2023-02-27T13:17:03.415Z,5.6
2023-02-27T13:18:06.789Z,5.7
2023-02-27T13:19:01.671Z,5.7
2023-02-27T13:20:01.652Z,5.8
2023-02-27T13:21:03.907Z,5.8
2023-02-27T13:22:05.408Z,5.8
2023-02-27T13:23:09.828Z,5.8
2023-02-27T13:24:07.498Z,5.7
2023-02-27T13:25:04.624Z,5.7
2023-02-27T13:26:04.224Z,5.8
2023-02-27T13:27:10.600Z,5.8
2023-02-27T13:28:03.119Z,5.8
2023-02-27T13:29:01.363Z,5.8
2023-02-27T13:30:07.301Z,5.8
2023-02-27T13:31:10.575Z,5.8
2023-02-27T13:32:10.124Z,5.7
2023-02-27T13:33:10.783Z,5.7